map of YKS home
Great Circle Mapper logo
YKS - Airport
Location
City:  Yakutsk, Sakha (Yakutiya), Russian Federation (Russia)
Name:Yakutsk Airport
ICAO / IATA:UEEE / YKS

Details
Type:Airport (Aerodrome, Airfield)
Use:Public/Civil, International (customs port of entry)
Latitude:6205'36"N (62.093333)
Longitude:12946'24"E (129.773333)
Elevation:326 ft (99 m)
Variation:15.65W (WMM2015 magnetic declination)
-0.01 annual change
Runways:1

Time
Time Zone:UTC+9 (DST+10)

Weather
METAR:UEEE 062130Z 01001MPS CAVOK 17/12 Q1010 R23L/09//60 NOSIG RMK QFE749
TAF:UEEE 062000Z 0621/0803 14003MPS CAVOK TX28/0706Z TN12/0718Z= TAF UHHH 061947Z 0621/0803 03007MPS 9999 SCT020CB
TEMPO 0621/0624 SCT006 SCT020CB
TEMPO 0705/0712 3000 -SHRA

Related Locations
Nearby:
Farthest:SAWB: 12183 mi / 19607 km
Base Marambio, Seymour Island, AQ

Find:

   beyond  
but within

Other Information
Maps:
NOTAMs:
Links:
Sources:

  
flag of Russian Federation (Russia)
flag of Sakha (Yakutiya)
  

Airport Diagram

Airport diagram for YKS

Airport diagram PDF from AIP of the Russian Federation

Sectional Chart

Flight Planning
at skyvector.com

Satellite Image

Google Maps Satellite view

Yandex Maps Satellite view


 

Copyright © 2004-2015 Karl L. Swartz. All rights reserved.
The Great Circle Mapper name and logo are trademarks of the Great Circle Mapper.
All other trademarks mentioned herein belong to their respective owners.
Please see credits for attibutions and further copyright information.

  Follow gcmap on Facebook Follow gcmap on Twitter Follow gcmap on Google+

hCard Microformat

Geo Microformat